Aviation Digital Data Service (ADDS)

Output produced by TAFs form (0809 UTC 18 November 2017)
found at http://aviationweather.gov/adds/tafs/
 
KMAF 180532Z 1806/1906 23011KT P6SM FEW250 
     FM181000 30014KT P6SM SCT250 
     FM181400 01024G34KT P6SM FEW250 
     FM182300 03009KT P6SM FEW250